Guildhall, VT (05905)

10:16 AM EST on March 02, 2015 (GMT -0500)
Island Pond | Change Station
CLOSE
Current Station
Personal Weather Station
Location: Brighton, VT
Elevation: 1204 ft
Nearby Weather Stations

Elev 1204 ft 44.81 °N, 71.86 °W | Updated 10 seconds ago

Snow
Snow
19.4 °F
Feels Like 7 °F
N
12.7
Wind Variable Wind from WNW
Gusts 12.7 mph

Today
High -- | Low -- °F
--% Chance of Precip.
Yesterday
High -- | Low -- °F
Precip. -- in
6:22 AM 5:35 PM
Waxing Gibbous, 91% visible
Pressure 29.91 in
Visibility 5.0 miles
Clouds Scattered Clouds 2300 ft
Scattered Clouds 3000 ft
Windchill 7 °F
Dew Point 14 °F
Humidity 80%
Rainfall 0.00 in
Snow Depth Not available.
UV 3 out of 12
Pollen .40 out of 12
Air Quality Not available.
Flu Activity Not available.
METAR KCDA 021455Z AUTO 24009G17KT 5SM UP SCT023 SCT030 M06/M11 A2991 RMK AO2 T10581108

More Conditions Fewer Conditions

Pressure 29.91 in
Visibility 5.0 miles
Clouds Scattered Clouds 2300 ft
Scattered Clouds 3000 ft
Windchill 7 °F
Dew Point 14 °F
Humidity 80%
Rainfall 0.00 in
Snow Depth Not available.
UV 3 out of 12
Pollen .40 out of 12
Air Quality Not available.
Flu Activity Not available.
METAR KCDA 021455Z AUTO 24009G17KT 5SM UP SCT023 SCT030 M06/M11 A2991 RMK AO2 T10581108

More Conditions Fewer Conditions

10-Day Weather Forecast

Almanac

Astronomy

Mar. 02, 2015 Rise Set
Actual Time
Civil Twilight
Nautical Twilight
Astronomical Twilight
Moon
Length of Visible Light
Length of Day
Tomorrow will be .
, % of the Moon is Illuminated

Today's Extremes

State Highs State Lows

Community

WunderPhotos

Upload Photos

1,801,803 photos uploaded!

WunderBlogs® & News

Nearby

Air Quality

  Air Quality AQ Index Pollutant
Not available.

Snow Depth

Station Depth Elevation

Earthquake Activity

City Distance Mag. Time & Date
Minimum magnitude displayed is 2.5.

Coastal Water Temperatures

Place Temperature

Nearby Weather Stations